createdAt,value
2022-08-03T00:03:09.137Z,0
2022-08-03T00:08:21.335Z,0
2022-08-03T00:13:33.643Z,0
2022-08-03T00:18:47.038Z,0
2022-08-03T00:24:02.212Z,0
2022-08-03T00:29:14.705Z,0
2022-08-03T00:34:32.606Z,0
2022-08-03T00:39:39.735Z,0
2022-08-03T00:44:51.987Z,0
2022-08-03T00:50:04.147Z,0
2022-08-03T00:55:16.606Z,0
2022-08-03T01:00:28.978Z,0
2022-08-03T01:05:41.254Z,0
2022-08-03T01:10:53.791Z,0
2022-08-03T01:16:06.206Z,0
2022-08-03T01:21:18.536Z,0
2022-08-03T01:26:30.936Z,0
2022-08-03T01:32:52.057Z,0
2022-08-03T01:36:55.723Z,0
2022-08-03T01:42:08.132Z,0
2022-08-03T01:47:20.497Z,0
2022-08-03T01:52:32.763Z,0
2022-08-03T01:58:05.026Z,0
2022-08-03T02:02:57.853Z,0
2022-08-03T02:08:10.250Z,0
2022-08-03T02:13:22.592Z,0
2022-08-03T02:23:50.280Z,0
2022-08-03T02:29:02.463Z,0
2022-08-03T02:34:14.794Z,0
2022-08-03T02:39:27.165Z,0
2022-08-03T02:44:39.478Z,0
2022-08-03T02:49:52.623Z,0
2022-08-03T02:55:04.276Z,0
2022-08-03T03:00:19.555Z,0
2022-08-03T03:05:54.109Z,0
2022-08-03T03:10:41.108Z,0
2022-08-03T03:15:53.548Z,151
2022-08-03T03:21:05.853Z,526
2022-08-03T03:26:18.282Z,1074
2022-08-03T03:31:30.622Z,1688
2022-08-03T03:36:43.085Z,2316
2022-08-03T03:41:55.407Z,3098
2022-08-03T03:47:07.690Z,3725
2022-08-03T03:52:19.923Z,4206
2022-08-03T03:57:32.274Z,4698
2022-08-03T04:02:44.660Z,5004
2022-08-03T04:07:56.986Z,5250
2022-08-03T04:13:11.957Z,5227
2022-08-03T04:18:24.590Z,5216
2022-08-03T04:23:37.108Z,5255
2022-08-03T04:28:49.565Z,5232
2022-08-03T04:34:01.845Z,5230
2022-08-03T04:39:14.484Z,5165
2022-08-03T04:44:28.103Z,5227
2022-08-03T04:49:39.621Z,5191
2022-08-03T04:54:51.970Z,5227
2022-08-03T05:05:16.832Z,5202
2022-08-03T05:10:29.044Z,5200
2022-08-03T05:15:43.111Z,5260
2022-08-03T05:20:54.005Z,5241
2022-08-03T05:26:06.547Z,5193
2022-08-03T05:31:19.051Z,5204
2022-08-03T05:36:31.355Z,5202
2022-08-03T05:41:43.896Z,5202
2022-08-03T05:46:56.464Z,5158
2022-08-03T05:52:11.439Z,5262
2022-08-03T05:57:21.208Z,5145
2022-08-03T06:02:33.823Z,5172
2022-08-03T06:07:46.233Z,5175
2022-08-03T06:12:58.861Z,5232
2022-08-03T06:18:11.089Z,5175
2022-08-03T06:23:26.341Z,5177
2022-08-03T06:28:51.997Z,5232
2022-08-03T06:34:31.768Z,5207
2022-08-03T06:39:00.819Z,5168
2022-08-03T06:49:25.704Z,5204
2022-08-03T06:54:37.903Z,5237
2022-08-03T07:00:06.837Z,5207
2022-08-03T07:05:02.876Z,5195
2022-08-03T07:10:15.365Z,5239
2022-08-03T07:15:54.713Z,5138
2022-08-03T07:20:40.314Z,5108
2022-08-03T07:25:52.790Z,5223
2022-08-03T07:31:05.204Z,5089
2022-08-03T07:36:17.597Z,5177
2022-08-03T07:41:30.036Z,5276
2022-08-03T07:46:42.437Z,5214
2022-08-03T07:51:54.861Z,5211
2022-08-03T07:57:07.202Z,5179
2022-08-03T08:02:19.626Z,5175
2022-08-03T08:07:32.043Z,5283
2022-08-03T08:12:44.574Z,5177
2022-08-03T08:17:57.080Z,5209
2022-08-03T08:23:13.934Z,5234
2022-08-03T08:34:01.282Z,5273
2022-08-03T08:38:49.355Z,5188
2022-08-03T08:44:01.834Z,5255
2022-08-03T08:49:14.285Z,5230
2022-08-03T08:54:26.472Z,5255
2022-08-03T08:59:48.045Z,5207
2022-08-03T09:10:10.686Z,5239
2022-08-03T09:15:17.356Z,5257
2022-08-03T09:20:28.773Z,5294
2022-08-03T09:25:41.083Z,5117
2022-08-03T09:30:53.292Z,5168
2022-08-03T09:36:05.920Z,5216
2022-08-03T09:41:18.565Z,5239
2022-08-03T09:46:33.588Z,5158
2022-08-03T09:52:23.039Z,5193
2022-08-03T09:56:58.420Z,5168
2022-08-03T10:02:10.857Z,5239
2022-08-03T10:07:23.372Z,5200
2022-08-03T10:12:35.678Z,5250
2022-08-03T10:17:48.431Z,5232
2022-08-03T10:23:00.842Z,5255
2022-08-03T10:28:15.732Z,5230
2022-08-03T10:38:40.699Z,5313
2022-08-03T10:43:53.188Z,5292
2022-08-03T10:49:05.406Z,5317
2022-08-03T10:54:17.708Z,5306
2022-08-03T10:59:30.277Z,5299
2022-08-03T11:04:42.694Z,5310
2022-08-03T11:09:54.991Z,5308
2022-08-03T11:15:07.523Z,5299
2022-08-03T11:20:19.694Z,5303
2022-08-03T11:25:34.723Z,5326
2022-08-03T11:30:44.415Z,5294
2022-08-03T11:41:09.365Z,5301
2022-08-03T11:46:28.133Z,5319
2022-08-03T11:51:34.557Z,5333
2022-08-03T11:56:47.047Z,5333
2022-08-03T12:01:59.480Z,5303
2022-08-03T12:07:11.592Z,5310
2022-08-03T12:12:24.033Z,5296
2022-08-03T12:22:49.490Z,5338
2022-08-03T12:28:01.661Z,5287
2022-08-03T12:33:13.957Z,5331
2022-08-03T12:38:26.348Z,5306
2022-08-03T12:43:39.784Z,5308
2022-08-03T12:48:54.163Z,5331
2022-08-03T12:54:06.662Z,5352
2022-08-03T13:04:31.752Z,5361
2022-08-03T13:09:44.110Z,5347
2022-08-03T13:14:58.995Z,5363
2022-08-03T13:20:11.214Z,5363
2022-08-03T13:25:24.243Z,5345
2022-08-03T13:30:36.579Z,5361
2022-08-03T13:35:49.222Z,5365
2022-08-03T13:46:13.812Z,5365
2022-08-03T13:51:26.920Z,5345
2022-08-03T13:56:38.587Z,5294
2022-08-03T14:01:55.165Z,5315
2022-08-03T14:07:03.285Z,5283
2022-08-03T14:12:15.753Z,5338
2022-08-03T14:17:28.009Z,5377
2022-08-03T14:22:40.324Z,5379
2022-08-03T14:27:52.667Z,5382
2022-08-03T14:33:04.834Z,5361
2022-08-03T14:38:17.097Z,5363
2022-08-03T14:43:33.937Z,5365
2022-08-03T14:49:02.898Z,5331
2022-08-03T14:53:54.464Z,5372
2022-08-03T14:59:06.681Z,5393
2022-08-03T15:04:18.812Z,5361
2022-08-03T15:09:30.996Z,5322
2022-08-03T15:14:43.270Z,5324
2022-08-03T15:19:59.756Z,5395
2022-08-03T15:26:01.888Z,5395
2022-08-03T15:30:20.535Z,5377
2022-08-03T15:35:32.519Z,5365
2022-08-03T15:40:45.381Z,5342
2022-08-03T15:51:10.732Z,5292
2022-08-03T15:56:25.814Z,5326
2022-08-03T16:01:37.701Z,5345
2022-08-03T16:06:49.894Z,5372
2022-08-03T16:12:02.018Z,5354
2022-08-03T16:17:14.289Z,5377
2022-08-03T16:22:26.722Z,5306
2022-08-03T16:28:00.540Z,5379
2022-08-03T16:32:51.299Z,5349
2022-08-03T16:38:07.962Z,5388
2022-08-03T16:43:18.058Z,5354
2022-08-03T16:48:28.431Z,5395
2022-08-03T16:53:51.822Z,5409
2022-08-03T17:04:05.231Z,5347
2022-08-03T17:09:18.323Z,5331
2022-08-03T17:14:30.346Z,5319
2022-08-03T17:19:47.309Z,5331
2022-08-03T17:24:54.498Z,5338
2022-08-03T17:30:07.663Z,5260
2022-08-03T17:35:18.628Z,5227
2022-08-03T17:40:31.064Z,5290
2022-08-03T17:45:51.889Z,5324
2022-08-03T17:50:55.790Z,5285
2022-08-03T17:56:40.502Z,5313
2022-08-03T18:06:33.779Z,5322
2022-08-03T18:11:45.835Z,5287
2022-08-03T18:16:58.021Z,4974
2022-08-03T18:22:10.246Z,5340
2022-08-03T18:27:22.532Z,5126
2022-08-03T18:32:34.822Z,4024
2022-08-03T18:37:51.723Z,3622
2022-08-03T18:42:59.367Z,3298
2022-08-03T18:48:11.542Z,3217
2022-08-03T18:53:23.868Z,2373
2022-08-03T18:58:36.207Z,1644
2022-08-03T19:03:48.225Z,1173
2022-08-03T19:09:06.459Z,729
2022-08-03T19:14:18.833Z,206
2022-08-03T19:19:43.707Z,0
2022-08-03T19:24:43.876Z,0
2022-08-03T19:29:58.330Z,0
2022-08-03T19:35:12.425Z,0
2022-08-03T19:45:52.830Z,0
2022-08-03T19:50:48.543Z,0
2022-08-03T19:56:00.652Z,0
2022-08-03T20:01:19.063Z,0
2022-08-03T20:06:25.509Z,0
2022-08-03T20:11:43.632Z,0
2022-08-03T20:16:50.495Z,0
2022-08-03T20:22:02.899Z,0
2022-08-03T20:27:15.134Z,0
2022-08-03T20:32:27.371Z,0
2022-08-03T20:37:42.961Z,0
2022-08-03T20:42:55.292Z,0
2022-08-03T20:48:07.711Z,0
2022-08-03T20:53:31.127Z,0
2022-08-03T20:58:32.230Z,0
2022-08-03T21:03:52.422Z,0
2022-08-03T21:08:56.997Z,0
2022-08-03T21:12:59.967Z,5347
2022-08-03T21:14:09.416Z,0
2022-08-03T21:19:21.532Z,0
2022-08-03T21:24:34.152Z,0
2022-08-03T21:29:52.551Z,0
2022-08-03T21:34:58.638Z,0
2022-08-03T21:40:10.852Z,0
2022-08-03T21:45:23.167Z,0
2022-08-03T22:02:22.923Z,0
2022-08-03T22:07:27.603Z,0
2022-08-03T22:12:40.141Z,0
2022-08-03T22:23:04.786Z,0
2022-08-03T22:28:17.097Z,0
2022-08-03T22:33:29.515Z,0
2022-08-03T22:38:42.340Z,0
2022-08-03T22:43:54.694Z,0
2022-08-03T22:49:06.904Z,0
2022-08-03T22:54:19.007Z,0
2022-08-03T22:59:39.325Z,0
2022-08-03T23:04:43.795Z,0
2022-08-03T23:09:56.009Z,0
2022-08-03T23:15:08.438Z,0
2022-08-03T23:20:25.007Z,0
2022-08-03T23:25:39.535Z,0
2022-08-03T23:30:48.055Z,0
2022-08-03T23:36:09.304Z,0
2022-08-03T23:41:12.607Z,0
2022-08-03T23:46:24.825Z,0
2022-08-03T23:51:36.957Z,0
2022-08-03T23:56:49.273Z,0
